sensor_id;sensor_type;location;lat;lon;timestamp;P1;P2;P0
65360;PMS5003;51958;55.018;73.536;2024-01-07T14:40:23;9.50;7.50;3.00
65360;PMS5003;51958;55.018;73.536;2024-01-07T14:55:28;14.33;12.00;4.33
65360;PMS5003;51958;55.018;73.536;2024-01-07T15:31:39;13.67;12.33;4.00
65360;PMS5003;51958;55.018;73.536;2024-01-07T15:49:44;14.00;12.00;4.00
65360;PMS5003;51958;55.018;73.536;2024-01-07T15:58:48;14.00;11.00;4.00
65360;PMS5003;51958;55.018;73.536;2024-01-07T16:10:54;12.00;12.00;4.50
65360;PMS5003;51958;55.018;73.536;2024-01-07T16:16:56;13.50;10.00;4.00
65360;PMS5003;51958;55.018;73.536;2024-01-07T16:22:58;13.00;10.00;3.00
65360;PMS5003;51958;55.018;73.536;2024-01-07T16:29:00;10.00;8.00;2.00
65360;PMS5003;51958;55.018;73.536;2024-01-07T16:35:02;16.67;13.33;5.67
65360;PMS5003;51958;55.018;73.536;2024-01-07T16:38:04;15.50;12.00;4.00
65360;PMS5003;51958;55.018;73.536;2024-01-07T16:53:11;12.00;11.00;4.00
65360;PMS5003;51958;55.018;73.536;2024-01-07T16:59:13;14.50;12.00;4.00
65360;PMS5003;51958;55.018;73.536;2024-01-07T17:11:18;17.00;14.00;6.50
65360;PMS5003;51958;55.018;73.536;2024-01-07T17:20:21;16.00;14.50;6.00
65360;PMS5003;51958;55.018;73.536;2024-01-07T17:23:22;16.00;15.00;5.00
65360;PMS5003;51958;55.018;73.536;2024-01-07T17:26:23;15.00;14.00;5.67
65360;PMS5003;51958;55.018;73.536;2024-01-07T17:29:26;17.00;15.00;6.00
65360;PMS5003;51958;55.018;73.536;2024-01-07T17:32:27;19.00;16.00;7.00
65360;PMS5003;51958;55.018;73.536;2024-01-07T17:35:28;16.67;14.00;4.67
65360;PMS5003;51958;55.018;73.536;2024-01-07T17:38:31;13.67;13.00;4.00
65360;PMS5003;51958;55.018;73.536;2024-01-07T17:41:32;16.00;14.00;4.00
65360;PMS5003;51958;55.018;73.536;2024-01-07T17:44:33;13.67;13.33;5.00
65360;PMS5003;51958;55.018;73.536;2024-01-07T17:47:39;15.00;15.00;5.00
65360;PMS5003;51958;55.018;73.536;2024-01-07T17:50:40;15.67;14.00;4.67
65360;PMS5003;51958;55.018;73.536;2024-01-07T17:53:44;16.00;15.00;5.00
65360;PMS5003;51958;55.018;73.536;2024-01-07T17:56:45;15.33;13.67;4.33
65360;PMS5003;51958;55.018;73.536;2024-01-07T17:59:46;15.00;13.00;4.00
65360;PMS5003;51958;55.018;73.536;2024-01-07T18:02:47;17.00;14.50;5.00
65360;PMS5003;51958;55.018;73.536;2024-01-07T18:05:49;18.33;15.33;6.00
65360;PMS5003;51958;55.018;73.536;2024-01-07T18:08:51;16.33;15.33;6.00
65360;PMS5003;51958;55.018;73.536;2024-01-07T18:11:54;13.00;13.00;5.00
65360;PMS5003;51958;55.018;73.536;2024-01-07T18:14:55;13.00;12.00;4.00
65360;PMS5003;51958;55.018;73.536;2024-01-07T18:17:56;12.00;11.00;4.00
65360;PMS5003;51958;55.018;73.536;2024-01-07T18:21:06;13.67;12.67;4.00
65360;PMS5003;51958;55.018;73.536;2024-01-07T18:24:07;18.67;16.00;5.00
65360;PMS5003;51958;55.018;73.536;2024-01-07T18:27:08;16.67;16.00;6.00
65360;PMS5003;51958;55.018;73.536;2024-01-07T18:30:17;19.00;15.00;6.00
65360;PMS5003;51958;55.018;73.536;2024-01-07T18:33:18;18.00;16.00;6.00
65360;PMS5003;51958;55.018;73.536;2024-01-07T18:36:19;19.00;15.67;5.67
65360;PMS5003;51958;55.018;73.536;2024-01-07T18:39:20;16.00;13.33;4.00
65360;PMS5003;51958;55.018;73.536;2024-01-07T18:42:21;15.00;13.33;5.00
65360;PMS5003;51958;55.018;73.536;2024-01-07T18:45:22;13.00;11.33;4.00
65360;PMS5003;51958;55.018;73.536;2024-01-07T18:48:24;16.00;15.00;6.00
65360;PMS5003;51958;55.018;73.536;2024-01-07T18:51:28;19.67;16.00;7.00
65360;PMS5003;51958;55.018;73.536;2024-01-07T18:54:31;18.67;17.33;5.00
65360;PMS5003;51958;55.018;73.536;2024-01-07T18:57:32;18.00;14.50;4.00
65360;PMS5003;51958;55.018;73.536;2024-01-07T19:00:34;16.00;13.00;4.00
65360;PMS5003;51958;55.018;73.536;2024-01-07T19:03:35;18.50;15.50;5.00
65360;PMS5003;51958;55.018;73.536;2024-01-07T19:06:36;17.67;15.00;6.00
65360;PMS5003;51958;55.018;73.536;2024-01-07T19:09:39;18.50;14.00;6.00
65360;PMS5003;51958;55.018;73.536;2024-01-07T19:12:44;19.00;14.00;5.00
65360;PMS5003;51958;55.018;73.536;2024-01-07T19:16:01;22.00;16.50;6.00
65360;PMS5003;51958;55.018;73.536;2024-01-07T19:19:02;19.00;14.00;4.50
65360;PMS5003;51958;55.018;73.536;2024-01-07T19:22:03;17.00;14.00;5.00
65360;PMS5003;51958;55.018;73.536;2024-01-07T19:25:04;17.00;15.00;6.00
65360;PMS5003;51958;55.018;73.536;2024-01-07T19:28:05;17.00;15.00;6.00
65360;PMS5003;51958;55.018;73.536;2024-01-07T19:31:06;18.00;14.00;6.00
65360;PMS5003;51958;55.018;73.536;2024-01-07T19:34:10;18.00;14.00;4.00
65360;PMS5003;51958;55.018;73.536;2024-01-07T19:37:11;16.50;15.00;6.00
65360;PMS5003;51958;55.018;73.536;2024-01-07T19:40:12;16.50;14.50;6.50
65360;PMS5003;51958;55.018;73.536;2024-01-07T19:43:26;16.50;14.00;6.00
65360;PMS5003;51958;55.018;73.536;2024-01-07T19:46:28;19.00;16.50;7.00
65360;PMS5003;51958;55.018;73.536;2024-01-07T19:49:31;14.00;13.50;4.00
65360;PMS5003;51958;55.018;73.536;2024-01-07T19:52:32;17.00;16.00;5.00
65360;PMS5003;51958;55.018;73.536;2024-01-07T19:55:34;16.50;15.00;4.50
65360;PMS5003;51958;55.018;73.536;2024-01-07T19:58:35;15.00;13.00;4.00
65360;PMS5003;51958;55.018;73.536;2024-01-07T20:01:36;14.00;12.00;3.00
65360;PMS5003;51958;55.018;73.536;2024-01-07T20:04:37;14.00;12.00;5.00
65360;PMS5003;51958;55.018;73.536;2024-01-07T20:07:40;12.00;12.00;4.00
65360;PMS5003;51958;55.018;73.536;2024-01-07T20:10:41;11.00;9.00;2.00
65360;PMS5003;51958;55.018;73.536;2024-01-07T20:13:42;10.00;9.00;3.00
65360;PMS5003;51958;55.018;73.536;2024-01-07T20:16:43;12.50;9.00;3.50
65360;PMS5003;51958;55.018;73.536;2024-01-07T20:19:44;14.00;12.00;4.00
65360;PMS5003;51958;55.018;73.536;2024-01-07T20:22:46;14.00;12.00;4.00
65360;PMS5003;51958;55.018;73.536;2024-01-07T20:25:47;14.00;14.00;4.00
65360;PMS5003;51958;55.018;73.536;2024-01-07T20:28:48;14.00;12.00;4.00
65360;PMS5003;51958;55.018;73.536;2024-01-07T20:31:52;16.00;14.00;4.00
65360;PMS5003;51958;55.018;73.536;2024-01-07T20:34:53;14.00;12.00;4.00
65360;PMS5003;51958;55.018;73.536;2024-01-07T20:37:54;12.50;11.50;4.00
65360;PMS5003;51958;55.018;73.536;2024-01-07T20:40:55;11.00;7.50;3.00
65360;PMS5003;51958;55.018;73.536;2024-01-07T20:43:56;10.50;7.00;2.00
65360;PMS5003;51958;55.018;73.536;2024-01-07T20:46:57;12.00;7.00;2.00
65360;PMS5003;51958;55.018;73.536;2024-01-07T20:49:58;12.00;8.00;2.00
65360;PMS5003;51958;55.018;73.536;2024-01-07T20:52:59;12.00;7.50;4.00
65360;PMS5003;51958;55.018;73.536;2024-01-07T20:56:01;12.00;9.50;4.00
65360;PMS5003;51958;55.018;73.536;2024-01-07T20:59:02;13.00;11.00;3.00
65360;PMS5003;51958;55.018;73.536;2024-01-07T21:02:04;12.00;12.00;3.00
65360;PMS5003;51958;55.018;73.536;2024-01-07T21:05:05;14.00;11.00;4.00
65360;PMS5003;51958;55.018;73.536;2024-01-07T21:08:08;14.00;11.00;5.00
65360;PMS5003;51958;55.018;73.536;2024-01-07T21:11:18;15.00;13.00;4.50
65360;PMS5003;51958;55.018;73.536;2024-01-07T21:14:21;12.00;12.00;3.33
65360;PMS5003;51958;55.018;73.536;2024-01-07T21:17:22;15.00;12.00;5.00
65360;PMS5003;51958;55.018;73.536;2024-01-07T21:20:23;15.00;13.00;5.00
65360;PMS5003;51958;55.018;73.536;2024-01-07T21:23:24;17.33;15.00;6.33
65360;PMS5003;51958;55.018;73.536;2024-01-07T21:26:25;16.00;14.00;5.00
65360;PMS5003;51958;55.018;73.536;2024-01-07T21:29:40;17.00;14.00;7.00
65360;PMS5003;51958;55.018;73.536;2024-01-07T21:32:41;16.33;15.00;5.33
65360;PMS5003;51958;55.018;73.536;2024-01-07T21:35:43;17.00;14.33;5.00
65360;PMS5003;51958;55.018;73.536;2024-01-07T21:38:45;16.50;14.00;5.00
65360;PMS5003;51958;55.018;73.536;2024-01-07T21:41:46;16.00;15.00;6.67
65360;PMS5003;51958;55.018;73.536;2024-01-07T21:44:50;16.33;15.00;6.00
65360;PMS5003;51958;55.018;73.536;2024-01-07T21:47:51;15.00;14.00;5.00
65360;PMS5003;51958;55.018;73.536;2024-01-07T21:50:52;15.33;13.00;5.00
65360;PMS5003;51958;55.018;73.536;2024-01-07T21:53:53;14.33;13.00;3.33
65360;PMS5003;51958;55.018;73.536;2024-01-07T21:56:54;18.00;13.00;5.00
65360;PMS5003;51958;55.018;73.536;2024-01-07T21:59:57;16.67;13.00;7.00
65360;PMS5003;51958;55.018;73.536;2024-01-07T22:02:58;18.00;15.00;5.00
65360;PMS5003;51958;55.018;73.536;2024-01-07T22:05:59;21.00;18.00;8.00
65360;PMS5003;51958;55.018;73.536;2024-01-07T22:09:00;25.00;20.67;9.00
65360;PMS5003;51958;55.018;73.536;2024-01-07T22:12:01;19.00;17.00;7.50
65360;PMS5003;51958;55.018;73.536;2024-01-07T22:15:03;21.50;18.00;9.50
65360;PMS5003;51958;55.018;73.536;2024-01-07T22:18:05;18.00;15.00;7.00
65360;PMS5003;51958;55.018;73.536;2024-01-07T22:21:15;17.00;13.00;6.00
65360;PMS5003;51958;55.018;73.536;2024-01-07T22:24:16;15.00;13.50;5.00
65360;PMS5003;51958;55.018;73.536;2024-01-07T22:27:17;17.00;15.33;5.00
65360;PMS5003;51958;55.018;73.536;2024-01-07T22:30:18;18.00;16.00;5.33
65360;PMS5003;51958;55.018;73.536;2024-01-07T22:33:21;16.00;15.00;5.00
65360;PMS5003;51958;55.018;73.536;2024-01-07T22:36:22;17.00;16.00;7.00
65360;PMS5003;51958;55.018;73.536;2024-01-07T22:39:23;16.00;14.00;4.00
65360;PMS5003;51958;55.018;73.536;2024-01-07T22:42:25;16.00;12.00;4.50
65360;PMS5003;51958;55.018;73.536;2024-01-07T22:45:26;14.00;13.00;3.00
65360;PMS5003;51958;55.018;73.536;2024-01-07T22:48:30;14.00;12.00;5.00
65360;PMS5003;51958;55.018;73.536;2024-01-07T22:51:32;16.00;13.00;5.00
65360;PMS5003;51958;55.018;73.536;2024-01-07T22:54:33;11.67;11.33;3.00
65360;PMS5003;51958;55.018;73.536;2024-01-07T22:57:37;13.00;11.00;4.67
65360;PMS5003;51958;55.018;73.536;2024-01-07T23:00:39;16.50;12.00;5.00
65360;PMS5003;51958;55.018;73.536;2024-01-07T23:03:40;15.67;11.33;5.00
65360;PMS5003;51958;55.018;73.536;2024-01-07T23:06:41;14.00;12.00;4.50
65360;PMS5003;51958;55.018;73.536;2024-01-07T23:09:42;14.67;13.00;3.00
65360;PMS5003;51958;55.018;73.536;2024-01-07T23:12:56;14.00;12.00;4.00
65360;PMS5003;51958;55.018;73.536;2024-01-07T23:15:57;16.00;13.00;5.00
65360;PMS5003;51958;55.018;73.536;2024-01-07T23:18:58;14.33;13.00;5.00
65360;PMS5003;51958;55.018;73.536;2024-01-07T23:22:04;16.50;14.00;6.50
65360;PMS5003;51958;55.018;73.536;2024-01-07T23:25:05;17.50;16.00;8.00
65360;PMS5003;51958;55.018;73.536;2024-01-07T23:28:06;17.00;16.00;7.00
65360;PMS5003;51958;55.018;73.536;2024-01-07T23:31:07;18.50;16.00;8.50
65360;PMS5003;51958;55.018;73.536;2024-01-07T23:34:09;18.00;15.25;6.75
65360;PMS5003;51958;55.018;73.536;2024-01-07T23:37:10;17.00;14.67;5.33
65360;PMS5003;51958;55.018;73.536;2024-01-07T23:40:11;17.00;14.67;5.67
65360;PMS5003;51958;55.018;73.536;2024-01-07T23:43:12;14.67;12.33;5.00
65360;PMS5003;51958;55.018;73.536;2024-01-07T23:46:13;13.00;12.00;3.00
65360;PMS5003;51958;55.018;73.536;2024-01-07T23:49:14;16.00;13.00;5.00
65360;PMS5003;51958;55.018;73.536;2024-01-07T23:52:15;12.00;11.00;4.00
65360;PMS5003;51958;55.018;73.536;2024-01-07T23:55:16;15.00;11.00;4.00
65360;PMS5003;51958;55.018;73.536;2024-01-07T23:58:23;13.00;10.00;3.00
